sensor_id;sensor_type;location;lat;lon;timestamp;temperature;humidity
4425;DHT22;2225;53.568;13.266;2023-11-19T00:00:16;8.20;94.40
4425;DHT22;2225;53.568;13.266;2023-11-19T00:02:43;8.20;94.50
4425;DHT22;2225;53.568;13.266;2023-11-19T00:05:11;8.20;94.40
4425;DHT22;2225;53.568;13.266;2023-11-19T00:07:39;8.30;94.50
4425;DHT22;2225;53.568;13.266;2023-11-19T00:10:13;8.30;94.30
4425;DHT22;2225;53.568;13.266;2023-11-19T00:12:43;8.30;94.30
4425;DHT22;2225;53.568;13.266;2023-11-19T00:15:12;8.30;94.30
4425;DHT22;2225;53.568;13.266;2023-11-19T00:17:42;8.30;94.20
4425;DHT22;2225;53.568;13.266;2023-11-19T00:20:16;8.30;94.40
4425;DHT22;2225;53.568;13.266;2023-11-19T00:22:45;8.30;94.40
4425;DHT22;2225;53.568;13.266;2023-11-19T00:25:19;8.40;94.20
4425;DHT22;2225;53.568;13.266;2023-11-19T00:27:48;8.40;94.30
4425;DHT22;2225;53.568;13.266;2023-11-19T00:30:15;8.40;94.30
4425;DHT22;2225;53.568;13.266;2023-11-19T00:32:43;8.40;94.30
4425;DHT22;2225;53.568;13.266;2023-11-19T00:35:10;8.40;94.30
4425;DHT22;2225;53.568;13.266;2023-11-19T00:37:37;8.40;94.30
4425;DHT22;2225;53.568;13.266;2023-11-19T00:40:04;8.40;94.30
4425;DHT22;2225;53.568;13.266;2023-11-19T00:42:32;8.40;94.30
4425;DHT22;2225;53.568;13.266;2023-11-19T00:44:59;8.40;94.50
4425;DHT22;2225;53.568;13.266;2023-11-19T00:47:28;8.40;94.50
4425;DHT22;2225;53.568;13.266;2023-11-19T00:49:55;8.40;94.90
4425;DHT22;2225;53.568;13.266;2023-11-19T00:52:22;8.40;94.60
4425;DHT22;2225;53.568;13.266;2023-11-19T00:54:49;8.40;94.70
4425;DHT22;2225;53.568;13.266;2023-11-19T00:57:16;8.40;94.80
4425;DHT22;2225;53.568;13.266;2023-11-19T00:59:43;8.50;94.90
4425;DHT22;2225;53.568;13.266;2023-11-19T01:02:10;8.40;95.00
4425;DHT22;2225;53.568;13.266;2023-11-19T01:04:37;8.50;95.20
4425;DHT22;2225;53.568;13.266;2023-11-19T01:07:05;8.50;95.30
4425;DHT22;2225;53.568;13.266;2023-11-19T01:09:33;8.50;95.40
4425;DHT22;2225;53.568;13.266;2023-11-19T01:12:01;8.60;95.50
4425;DHT22;2225;53.568;13.266;2023-11-19T01:14:29;8.60;95.60
4425;DHT22;2225;53.568;13.266;2023-11-19T01:16:56;8.60;95.70
4425;DHT22;2225;53.568;13.266;2023-11-19T01:19:24;8.50;95.70
4425;DHT22;2225;53.568;13.266;2023-11-19T01:21:51;8.50;95.70
4425;DHT22;2225;53.568;13.266;2023-11-19T01:24:18;8.50;95.90
4425;DHT22;2225;53.568;13.266;2023-11-19T01:26:46;8.50;95.90
4425;DHT22;2225;53.568;13.266;2023-11-19T01:29:14;8.50;96.10
4425;DHT22;2225;53.568;13.266;2023-11-19T01:31:45;8.40;96.20
4425;DHT22;2225;53.568;13.266;2023-11-19T01:34:18;8.40;96.30
4425;DHT22;2225;53.568;13.266;2023-11-19T01:36:47;8.40;96.40
4425;DHT22;2225;53.568;13.266;2023-11-19T01:39:15;8.40;96.60
4425;DHT22;2225;53.568;13.266;2023-11-19T01:41:42;8.40;96.60
4425;DHT22;2225;53.568;13.266;2023-11-19T01:44:09;8.40;96.70
4425;DHT22;2225;53.568;13.266;2023-11-19T01:46:40;8.30;96.80
4425;DHT22;2225;53.568;13.266;2023-11-19T01:49:09;8.30;97.00
4425;DHT22;2225;53.568;13.266;2023-11-19T01:51:39;8.30;97.10
4425;DHT22;2225;53.568;13.266;2023-11-19T01:54:07;8.20;97.30
4425;DHT22;2225;53.568;13.266;2023-11-19T01:56:35;8.20;97.40
4425;DHT22;2225;53.568;13.266;2023-11-19T01:59:03;8.20;97.50
4425;DHT22;2225;53.568;13.266;2023-11-19T02:01:30;8.20;97.60
4425;DHT22;2225;53.568;13.266;2023-11-19T02:03:59;8.20;97.80
4425;DHT22;2225;53.568;13.266;2023-11-19T02:06:27;8.20;98.00
4425;DHT22;2225;53.568;13.266;2023-11-19T02:08:55;8.10;98.20
4425;DHT22;2225;53.568;13.266;2023-11-19T02:11:22;8.10;98.30
4425;DHT22;2225;53.568;13.266;2023-11-19T02:13:48;8.10;98.30
4425;DHT22;2225;53.568;13.266;2023-11-19T02:16:15;8.10;98.40
4425;DHT22;2225;53.568;13.266;2023-11-19T02:18:42;8.10;98.40
4425;DHT22;2225;53.568;13.266;2023-11-19T02:21:09;8.10;98.50
4425;DHT22;2225;53.568;13.266;2023-11-19T02:23:37;8.20;98.50
4425;DHT22;2225;53.568;13.266;2023-11-19T02:26:25;8.20;98.50
4425;DHT22;2225;53.568;13.266;2023-11-19T02:28:56;8.20;98.60
4425;DHT22;2225;53.568;13.266;2023-11-19T02:31:23;8.20;98.60
4425;DHT22;2225;53.568;13.266;2023-11-19T02:33:50;8.20;98.70
4425;DHT22;2225;53.568;13.266;2023-11-19T02:36:18;8.10;98.80
4425;DHT22;2225;53.568;13.266;2023-11-19T02:38:47;8.10;98.80
4425;DHT22;2225;53.568;13.266;2023-11-19T02:41:14;8.10;98.80
4425;DHT22;2225;53.568;13.266;2023-11-19T02:43:41;8.10;98.80
4425;DHT22;2225;53.568;13.266;2023-11-19T02:46:08;8.20;98.90
4425;DHT22;2225;53.568;13.266;2023-11-19T02:48:38;8.20;98.90
4425;DHT22;2225;53.568;13.266;2023-11-19T02:51:06;8.10;98.80
4425;DHT22;2225;53.568;13.266;2023-11-19T02:53:36;8.10;98.90
4425;DHT22;2225;53.568;13.266;2023-11-19T02:56:05;8.10;99.00
4425;DHT22;2225;53.568;13.266;2023-11-19T02:58:38;8.10;99.00
4425;DHT22;2225;53.568;13.266;2023-11-19T03:01:05;8.10;99.00
4425;DHT22;2225;53.568;13.266;2023-11-19T03:03:51;8.10;99.10
4425;DHT22;2225;53.568;13.266;2023-11-19T03:06:24;8.10;99.10
4425;DHT22;2225;53.568;13.266;2023-11-19T03:08:51;8.00;99.20
4425;DHT22;2225;53.568;13.266;2023-11-19T03:11:18;8.10;99.20
4425;DHT22;2225;53.568;13.266;2023-11-19T03:13:45;8.10;99.50
4425;DHT22;2225;53.568;13.266;2023-11-19T03:16:13;8.10;99.20
4425;DHT22;2225;53.568;13.266;2023-11-19T03:18:40;8.00;99.30
4425;DHT22;2225;53.568;13.266;2023-11-19T03:21:07;8.00;99.30
4425;DHT22;2225;53.568;13.266;2023-11-19T03:23:35;8.00;99.40
4425;DHT22;2225;53.568;13.266;2023-11-19T03:26:02;8.00;99.40
4425;DHT22;2225;53.568;13.266;2023-11-19T03:28:32;8.00;99.40
4425;DHT22;2225;53.568;13.266;2023-11-19T03:31:00;8.00;99.50
4425;DHT22;2225;53.568;13.266;2023-11-19T03:33:27;7.90;99.50
4425;DHT22;2225;53.568;13.266;2023-11-19T03:35:56;7.90;99.60
4425;DHT22;2225;53.568;13.266;2023-11-19T03:38:24;7.90;99.60
4425;DHT22;2225;53.568;13.266;2023-11-19T03:40:51;7.90;99.60
4425;DHT22;2225;53.568;13.266;2023-11-19T03:43:18;7.80;99.60
4425;DHT22;2225;53.568;13.266;2023-11-19T03:45:48;7.80;99.70
4425;DHT22;2225;53.568;13.266;2023-11-19T03:48:15;7.80;99.60
4425;DHT22;2225;53.568;13.266;2023-11-19T03:50:43;7.80;99.70
4425;DHT22;2225;53.568;13.266;2023-11-19T03:53:11;7.80;99.70
4425;DHT22;2225;53.568;13.266;2023-11-19T03:55:38;7.80;99.80
4425;DHT22;2225;53.568;13.266;2023-11-19T03:58:05;7.80;99.80
4425;DHT22;2225;53.568;13.266;2023-11-19T04:00:32;7.70;99.80
4425;DHT22;2225;53.568;13.266;2023-11-19T04:02:59;7.70;99.90
4425;DHT22;2225;53.568;13.266;2023-11-19T04:05:27;7.70;99.90
4425;DHT22;2225;53.568;13.266;2023-11-19T04:07:54;7.70;99.90
4425;DHT22;2225;53.568;13.266;2023-11-19T04:10:21;7.70;99.90
4425;DHT22;2225;53.568;13.266;2023-11-19T04:12:49;7.70;99.90
4425;DHT22;2225;53.568;13.266;2023-11-19T04:15:16;7.70;99.90
4425;DHT22;2225;53.568;13.266;2023-11-19T04:17:43;7.70;99.90
4425;DHT22;2225;53.568;13.266;2023-11-19T04:20:11;7.80;99.90
4425;DHT22;2225;53.568;13.266;2023-11-19T04:22:41;7.80;99.90
4425;DHT22;2225;53.568;13.266;2023-11-19T04:25:08;7.70;99.90
4425;DHT22;2225;53.568;13.266;2023-11-19T04:27:36;7.60;99.90
4425;DHT22;2225;53.568;13.266;2023-11-19T04:30:03;7.60;99.90
4425;DHT22;2225;53.568;13.266;2023-11-19T04:32:32;7.60;99.90
4425;DHT22;2225;53.568;13.266;2023-11-19T04:34:59;7.60;99.90
4425;DHT22;2225;53.568;13.266;2023-11-19T04:37:26;7.60;99.90
4425;DHT22;2225;53.568;13.266;2023-11-19T04:39:53;7.60;99.90
4425;DHT22;2225;53.568;13.266;2023-11-19T04:42:22;7.60;99.90
4425;DHT22;2225;53.568;13.266;2023-11-19T04:44:49;7.60;99.90
4425;DHT22;2225;53.568;13.266;2023-11-19T04:47:16;7.60;99.90
4425;DHT22;2225;53.568;13.266;2023-11-19T04:49:43;7.60;99.90
4425;DHT22;2225;53.568;13.266;2023-11-19T04:52:11;7.60;99.90
4425;DHT22;2225;53.568;13.266;2023-11-19T04:54:42;7.60;99.90
4425;DHT22;2225;53.568;13.266;2023-11-19T04:57:12;7.50;99.90
4425;DHT22;2225;53.568;13.266;2023-11-19T04:59:39;7.60;99.90
4425;DHT22;2225;53.568;13.266;2023-11-19T05:02:06;7.60;99.90
4425;DHT22;2225;53.568;13.266;2023-11-19T05:04:33;7.50;99.90
4425;DHT22;2225;53.568;13.266;2023-11-19T05:07:00;7.50;99.90
4425;DHT22;2225;53.568;13.266;2023-11-19T05:09:27;7.50;99.90
4425;DHT22;2225;53.568;13.266;2023-11-19T05:11:54;7.50;99.90
4425;DHT22;2225;53.568;13.266;2023-11-19T05:14:21;7.50;99.90
4425;DHT22;2225;53.568;13.266;2023-11-19T05:16:48;7.50;99.90
4425;DHT22;2225;53.568;13.266;2023-11-19T05:19:16;7.50;99.90
4425;DHT22;2225;53.568;13.266;2023-11-19T05:21:43;7.50;99.90
4425;DHT22;2225;53.568;13.266;2023-11-19T05:24:10;7.50;99.90
4425;DHT22;2225;53.568;13.266;2023-11-19T05:26:40;7.40;99.90
4425;DHT22;2225;53.568;13.266;2023-11-19T05:29:07;7.50;99.90
4425;DHT22;2225;53.568;13.266;2023-11-19T05:31:34;7.50;99.90
4425;DHT22;2225;53.568;13.266;2023-11-19T05:34:03;7.50;99.90
4425;DHT22;2225;53.568;13.266;2023-11-19T05:36:30;7.50;99.90
4425;DHT22;2225;53.568;13.266;2023-11-19T05:38:57;7.50;99.90
4425;DHT22;2225;53.568;13.266;2023-11-19T05:41:24;7.50;99.90
4425;DHT22;2225;53.568;13.266;2023-11-19T05:43:51;7.50;99.90
4425;DHT22;2225;53.568;13.266;2023-11-19T05:46:18;7.50;99.90
4425;DHT22;2225;53.568;13.266;2023-11-19T05:48:47;7.60;99.90
4425;DHT22;2225;53.568;13.266;2023-11-19T05:51:15;7.60;99.90
4425;DHT22;2225;53.568;13.266;2023-11-19T05:53:42;7.60;99.90
4425;DHT22;2225;53.568;13.266;2023-11-19T05:56:09;7.70;99.90
4425;DHT22;2225;53.568;13.266;2023-11-19T05:58:37;7.70;99.90
4425;DHT22;2225;53.568;13.266;2023-11-19T06:01:05;7.70;99.90
4425;DHT22;2225;53.568;13.266;2023-11-19T06:03:34;7.80;99.90
4425;DHT22;2225;53.568;13.266;2023-11-19T06:06:02;7.80;99.90
4425;DHT22;2225;53.568;13.266;2023-11-19T06:08:29;7.80;99.90
4425;DHT22;2225;53.568;13.266;2023-11-19T06:10:57;7.90;99.90
4425;DHT22;2225;53.568;13.266;2023-11-19T06:13:24;7.90;99.90
4425;DHT22;2225;53.568;13.266;2023-11-19T06:15:52;8.00;99.90
4425;DHT22;2225;53.568;13.266;2023-11-19T06:18:19;7.90;99.90
4425;DHT22;2225;53.568;13.266;2023-11-19T06:20:50;7.90;99.90
4425;DHT22;2225;53.568;13.266;2023-11-19T06:23:17;7.90;99.90
4425;DHT22;2225;53.568;13.266;2023-11-19T06:25:43;7.90;99.90
4425;DHT22;2225;53.568;13.266;2023-11-19T06:28:11;7.90;99.90
4425;DHT22;2225;53.568;13.266;2023-11-19T06:30:37;7.90;99.90
4425;DHT22;2225;53.568;13.266;2023-11-19T06:33:04;7.90;99.90
4425;DHT22;2225;53.568;13.266;2023-11-19T06:35:31;8.00;99.90
4425;DHT22;2225;53.568;13.266;2023-11-19T06:38:03;8.00;99.90
4425;DHT22;2225;53.568;13.266;2023-11-19T06:40:34;8.00;99.90
4425;DHT22;2225;53.568;13.266;2023-11-19T06:43:02;8.00;99.90
4425;DHT22;2225;53.568;13.266;2023-11-19T06:45:30;8.00;99.90
4425;DHT22;2225;53.568;13.266;2023-11-19T06:47:57;8.00;99.90
4425;DHT22;2225;53.568;13.266;2023-11-19T06:50:25;8.00;99.90
4425;DHT22;2225;53.568;13.266;2023-11-19T06:52:52;8.10;99.90
4425;DHT22;2225;53.568;13.266;2023-11-19T06:55:19;8.10;99.90
4425;DHT22;2225;53.568;13.266;2023-11-19T06:57:46;8.00;99.90
4425;DHT22;2225;53.568;13.266;2023-11-19T07:00:13;8.00;99.90
4425;DHT22;2225;53.568;13.266;2023-11-19T07:02:40;8.00;99.90
4425;DHT22;2225;53.568;13.266;2023-11-19T07:05:07;8.00;99.90
4425;DHT22;2225;53.568;13.266;2023-11-19T07:07:35;7.90;99.90
4425;DHT22;2225;53.568;13.266;2023-11-19T07:10:02;7.90;99.90
4425;DHT22;2225;53.568;13.266;2023-11-19T07:12:31;7.90;99.90
4425;DHT22;2225;53.568;13.266;2023-11-19T07:14:58;8.00;99.90
4425;DHT22;2225;53.568;13.266;2023-11-19T07:17:25;8.10;99.90
4425;DHT22;2225;53.568;13.266;2023-11-19T07:19:52;8.10;99.90
4425;DHT22;2225;53.568;13.266;2023-11-19T07:22:19;8.10;99.90
4425;DHT22;2225;53.568;13.266;2023-11-19T07:24:46;8.10;99.90
4425;DHT22;2225;53.568;13.266;2023-11-19T07:27:13;8.10;99.90
4425;DHT22;2225;53.568;13.266;2023-11-19T07:29:40;8.10;99.90
4425;DHT22;2225;53.568;13.266;2023-11-19T07:32:09;8.10;99.90
4425;DHT22;2225;53.568;13.266;2023-11-19T07:34:36;8.20;99.90
4425;DHT22;2225;53.568;13.266;2023-11-19T07:37:03;8.20;99.90
4425;DHT22;2225;53.568;13.266;2023-11-19T07:39:31;8.20;99.90
4425;DHT22;2225;53.568;13.266;2023-11-19T07:41:59;8.10;99.90
4425;DHT22;2225;53.568;13.266;2023-11-19T07:44:26;8.10;99.90
4425;DHT22;2225;53.568;13.266;2023-11-19T07:46:53;8.10;99.90
4425;DHT22;2225;53.568;13.266;2023-11-19T07:49:20;8.10;99.90
4425;DHT22;2225;53.568;13.266;2023-11-19T07:51:47;8.10;99.90
4425;DHT22;2225;53.568;13.266;2023-11-19T07:54:14;8.10;99.90
4425;DHT22;2225;53.568;13.266;2023-11-19T07:56:41;8.10;99.90
4425;DHT22;2225;53.568;13.266;2023-11-19T07:59:08;8.10;99.90
4425;DHT22;2225;53.568;13.266;2023-11-19T08:01:35;8.10;99.90
4425;DHT22;2225;53.568;13.266;2023-11-19T08:04:02;8.10;99.90
4425;DHT22;2225;53.568;13.266;2023-11-19T08:06:29;8.20;99.90
4425;DHT22;2225;53.568;13.266;2023-11-19T08:08:56;8.20;99.90
4425;DHT22;2225;53.568;13.266;2023-11-19T08:11:23;8.20;99.90
4425;DHT22;2225;53.568;13.266;2023-11-19T08:13:51;8.10;99.90
4425;DHT22;2225;53.568;13.266;2023-11-19T08:16:17;8.10;99.90
4425;DHT22;2225;53.568;13.266;2023-11-19T08:18:45;8.00;99.90
4425;DHT22;2225;53.568;13.266;2023-11-19T08:21:12;8.00;99.90
4425;DHT22;2225;53.568;13.266;2023-11-19T08:23:39;8.10;99.90
4425;DHT22;2225;53.568;13.266;2023-11-19T08:26:06;8.20;99.90
4425;DHT22;2225;53.568;13.266;2023-11-19T08:28:33;8.20;99.90
4425;DHT22;2225;53.568;13.266;2023-11-19T08:31:02;8.30;99.90
4425;DHT22;2225;53.568;13.266;2023-11-19T08:33:31;8.20;99.90
4425;DHT22;2225;53.568;13.266;2023-11-19T08:35:58;8.30;99.90
4425;DHT22;2225;53.568;13.266;2023-11-19T08:38:25;8.30;99.90
4425;DHT22;2225;53.568;13.266;2023-11-19T08:40:55;8.30;99.90
4425;DHT22;2225;53.568;13.266;2023-11-19T08:43:27;8.30;99.90
4425;DHT22;2225;53.568;13.266;2023-11-19T08:45:54;8.40;99.90
4425;DHT22;2225;53.568;13.266;2023-11-19T08:48:21;8.40;99.90
4425;DHT22;2225;53.568;13.266;2023-11-19T08:50:48;8.50;99.90
4425;DHT22;2225;53.568;13.266;2023-11-19T08:53:15;8.50;99.90
4425;DHT22;2225;53.568;13.266;2023-11-19T08:55:42;8.60;99.90
4425;DHT22;2225;53.568;13.266;2023-11-19T08:58:09;8.60;99.90
4425;DHT22;2225;53.568;13.266;2023-11-19T09:00:36;8.70;99.90
4425;DHT22;2225;53.568;13.266;2023-11-19T09:03:03;8.70;99.90
4425;DHT22;2225;53.568;13.266;2023-11-19T09:05:30;8.80;99.90
4425;DHT22;2225;53.568;13.266;2023-11-19T09:07:58;8.70;99.90
4425;DHT22;2225;53.568;13.266;2023-11-19T09:10:25;8.80;99.90
4425;DHT22;2225;53.568;13.266;2023-11-19T09:12:53;8.80;99.90
4425;DHT22;2225;53.568;13.266;2023-11-19T09:15:24;8.90;99.90
4425;DHT22;2225;53.568;13.266;2023-11-19T09:17:51;8.90;99.90
4425;DHT22;2225;53.568;13.266;2023-11-19T09:20:18;9.00;99.90
4425;DHT22;2225;53.568;13.266;2023-11-19T09:22:45;9.10;99.90
4425;DHT22;2225;53.568;13.266;2023-11-19T09:25:12;9.10;99.90
4425;DHT22;2225;53.568;13.266;2023-11-19T09:27:44;9.20;99.90
4425;DHT22;2225;53.568;13.266;2023-11-19T09:30:11;9.20;99.90
4425;DHT22;2225;53.568;13.266;2023-11-19T09:32:39;9.30;99.90
4425;DHT22;2225;53.568;13.266;2023-11-19T09:35:07;9.30;99.90
4425;DHT22;2225;53.568;13.266;2023-11-19T09:37:35;9.30;99.90
4425;DHT22;2225;53.568;13.266;2023-11-19T09:40:02;9.40;99.90
4425;DHT22;2225;53.568;13.266;2023-11-19T09:42:29;9.40;99.90
4425;DHT22;2225;53.568;13.266;2023-11-19T09:44:59;9.40;99.90
4425;DHT22;2225;53.568;13.266;2023-11-19T09:47:26;9.50;99.90
4425;DHT22;2225;53.568;13.266;2023-11-19T09:49:54;9.60;99.90
4425;DHT22;2225;53.568;13.266;2023-11-19T09:52:24;9.60;99.90
4425;DHT22;2225;53.568;13.266;2023-11-19T09:54:51;9.60;99.90
4425;DHT22;2225;53.568;13.266;2023-11-19T09:57:18;9.70;99.90
4425;DHT22;2225;53.568;13.266;2023-11-19T09:59:46;9.70;99.90
4425;DHT22;2225;53.568;13.266;2023-11-19T10:02:14;9.80;99.90
4425;DHT22;2225;53.568;13.266;2023-11-19T10:04:42;9.80;99.90
4425;DHT22;2225;53.568;13.266;2023-11-19T10:07:11;9.80;99.90
4425;DHT22;2225;53.568;13.266;2023-11-19T10:09:38;9.90;99.90
4425;DHT22;2225;53.568;13.266;2023-11-19T10:12:05;10.00;99.90
4425;DHT22;2225;53.568;13.266;2023-11-19T10:14:35;10.00;99.90
4425;DHT22;2225;53.568;13.266;2023-11-19T10:17:07;10.10;99.90
4425;DHT22;2225;53.568;13.266;2023-11-19T10:19:34;10.10;99.90
4425;DHT22;2225;53.568;13.266;2023-11-19T10:22:05;10.20;99.90
4425;DHT22;2225;53.568;13.266;2023-11-19T10:24:33;10.20;99.90
4425;DHT22;2225;53.568;13.266;2023-11-19T10:27:07;10.20;99.90
4425;DHT22;2225;53.568;13.266;2023-11-19T10:29:38;10.30;99.90
4425;DHT22;2225;53.568;13.266;2023-11-19T10:32:05;10.40;99.90
4425;DHT22;2225;53.568;13.266;2023-11-19T10:34:52;10.40;99.90
4425;DHT22;2225;53.568;13.266;2023-11-19T10:37:28;10.50;99.90
4425;DHT22;2225;53.568;13.266;2023-11-19T10:39:58;10.50;99.90
4425;DHT22;2225;53.568;13.266;2023-11-19T10:42:25;10.60;99.90
4425;DHT22;2225;53.568;13.266;2023-11-19T10:44:52;10.60;99.90
4425;DHT22;2225;53.568;13.266;2023-11-19T10:47:19;10.60;99.90
4425;DHT22;2225;53.568;13.266;2023-11-19T10:50:04;10.60;99.90
4425;DHT22;2225;53.568;13.266;2023-11-19T10:52:33;10.70;99.90
4425;DHT22;2225;53.568;13.266;2023-11-19T10:55:03;10.70;99.90
4425;DHT22;2225;53.568;13.266;2023-11-19T10:57:36;10.80;99.90
4425;DHT22;2225;53.568;13.266;2023-11-19T11:00:04;10.80;99.90
4425;DHT22;2225;53.568;13.266;2023-11-19T11:02:41;10.80;99.90
4425;DHT22;2225;53.568;13.266;2023-11-19T11:05:12;10.80;99.90
4425;DHT22;2225;53.568;13.266;2023-11-19T11:07:43;10.80;99.90
4425;DHT22;2225;53.568;13.266;2023-11-19T11:10:11;10.90;99.90
4425;DHT22;2225;53.568;13.266;2023-11-19T11:12:41;10.90;99.90
4425;DHT22;2225;53.568;13.266;2023-11-19T11:15:11;10.90;99.90
4425;DHT22;2225;53.568;13.266;2023-11-19T11:17:42;10.90;99.90
4425;DHT22;2225;53.568;13.266;2023-11-19T11:20:10;11.00;99.90
4425;DHT22;2225;53.568;13.266;2023-11-19T11:22:49;11.10;99.90
4425;DHT22;2225;53.568;13.266;2023-11-19T11:25:27;11.10;99.90
4425;DHT22;2225;53.568;13.266;2023-11-19T11:28:18;11.20;99.90
4425;DHT22;2225;53.568;13.266;2023-11-19T11:31:00;11.20;99.90
4425;DHT22;2225;53.568;13.266;2023-11-19T11:39:40;11.50;99.90
4425;DHT22;2225;53.568;13.266;2023-11-19T11:45:04;11.70;99.90
4425;DHT22;2225;53.568;13.266;2023-11-19T11:55:26;12.10;99.90
4425;DHT22;2225;53.568;13.266;2023-11-19T11:58:05;12.10;99.90
4425;DHT22;2225;53.568;13.266;2023-11-19T12:00:36;12.20;99.90
4425;DHT22;2225;53.568;13.266;2023-11-19T12:03:07;12.30;99.90
4425;DHT22;2225;53.568;13.266;2023-11-19T12:05:42;12.40;99.90
4425;DHT22;2225;53.568;13.266;2023-11-19T12:08:15;12.40;99.90
4425;DHT22;2225;53.568;13.266;2023-11-19T12:10:52;12.50;99.90
4425;DHT22;2225;53.568;13.266;2023-11-19T12:13:21;12.60;99.90
4425;DHT22;2225;53.568;13.266;2023-11-19T12:18:30;12.70;99.90
4425;DHT22;2225;53.568;13.266;2023-11-19T12:20:59;12.80;99.90
4425;DHT22;2225;53.568;13.266;2023-11-19T12:23:29;12.90;99.90
4425;DHT22;2225;53.568;13.266;2023-11-19T12:25:57;13.00;99.90
4425;DHT22;2225;53.568;13.266;2023-11-19T12:28:24;13.00;99.90
4425;DHT22;2225;53.568;13.266;2023-11-19T12:30:54;13.10;99.90
4425;DHT22;2225;53.568;13.266;2023-11-19T12:33:35;13.20;99.90
4425;DHT22;2225;53.568;13.266;2023-11-19T12:36:02;13.30;99.90
4425;DHT22;2225;53.568;13.266;2023-11-19T12:38:32;13.30;99.90
4425;DHT22;2225;53.568;13.266;2023-11-19T12:43:30;13.50;99.90
4425;DHT22;2225;53.568;13.266;2023-11-19T12:45:57;13.60;99.90
4425;DHT22;2225;53.568;13.266;2023-11-19T12:48:24;13.60;99.90
4425;DHT22;2225;53.568;13.266;2023-11-19T12:50:55;13.70;99.90
4425;DHT22;2225;53.568;13.266;2023-11-19T12:53:26;13.80;99.90
4425;DHT22;2225;53.568;13.266;2023-11-19T12:55:55;13.80;99.90
4425;DHT22;2225;53.568;13.266;2023-11-19T12:58:48;13.80;99.90
4425;DHT22;2225;53.568;13.266;2023-11-19T13:01:17;13.90;99.90
4425;DHT22;2225;53.568;13.266;2023-11-19T13:03:47;13.90;99.90
4425;DHT22;2225;53.568;13.266;2023-11-19T13:06:15;13.90;99.90
4425;DHT22;2225;53.568;13.266;2023-11-19T13:08:47;14.00;99.90
4425;DHT22;2225;53.568;13.266;2023-11-19T13:11:31;14.00;99.90
4425;DHT22;2225;53.568;13.266;2023-11-19T13:14:00;14.10;99.90
4425;DHT22;2225;53.568;13.266;2023-11-19T13:16:30;14.10;99.90
4425;DHT22;2225;53.568;13.266;2023-11-19T13:18:58;14.10;99.90
4425;DHT22;2225;53.568;13.266;2023-11-19T13:21:26;14.20;99.90
4425;DHT22;2225;53.568;13.266;2023-11-19T13:23:53;14.20;99.90
4425;DHT22;2225;53.568;13.266;2023-11-19T13:26:21;14.20;99.90
4425;DHT22;2225;53.568;13.266;2023-11-19T13:28:48;14.20;99.90
4425;DHT22;2225;53.568;13.266;2023-11-19T13:31:15;14.30;99.90
4425;DHT22;2225;53.568;13.266;2023-11-19T13:33:43;14.30;99.90
4425;DHT22;2225;53.568;13.266;2023-11-19T13:36:10;14.30;99.90
4425;DHT22;2225;53.568;13.266;2023-11-19T13:38:41;14.30;99.90
4425;DHT22;2225;53.568;13.266;2023-11-19T13:41:10;14.30;99.90
4425;DHT22;2225;53.568;13.266;2023-11-19T13:43:39;14.40;99.90
4425;DHT22;2225;53.568;13.266;2023-11-19T13:46:06;14.40;99.90
4425;DHT22;2225;53.568;13.266;2023-11-19T13:48:33;14.40;99.90
4425;DHT22;2225;53.568;13.266;2023-11-19T13:51:00;14.50;99.90
4425;DHT22;2225;53.568;13.266;2023-11-19T13:53:27;14.50;99.90
4425;DHT22;2225;53.568;13.266;2023-11-19T13:55:54;14.50;99.90
4425;DHT22;2225;53.568;13.266;2023-11-19T13:58:21;14.60;99.90
4425;DHT22;2225;53.568;13.266;2023-11-19T14:00:48;14.60;99.90
4425;DHT22;2225;53.568;13.266;2023-11-19T14:03:15;14.70;99.90
4425;DHT22;2225;53.568;13.266;2023-11-19T14:05:42;14.70;99.90
4425;DHT22;2225;53.568;13.266;2023-11-19T14:08:09;14.70;99.90
4425;DHT22;2225;53.568;13.266;2023-11-19T14:10:51;14.80;99.90
4425;DHT22;2225;53.568;13.266;2023-11-19T14:13:18;14.80;99.90
4425;DHT22;2225;53.568;13.266;2023-11-19T14:15:45;14.80;99.90
4425;DHT22;2225;53.568;13.266;2023-11-19T14:18:16;14.90;99.90
4425;DHT22;2225;53.568;13.266;2023-11-19T14:20:43;14.90;99.90
4425;DHT22;2225;53.568;13.266;2023-11-19T14:23:10;14.90;99.90
4425;DHT22;2225;53.568;13.266;2023-11-19T14:25:37;14.90;99.90
4425;DHT22;2225;53.568;13.266;2023-11-19T14:28:04;14.90;99.90
4425;DHT22;2225;53.568;13.266;2023-11-19T14:30:32;14.80;99.90
4425;DHT22;2225;53.568;13.266;2023-11-19T14:33:01;14.90;99.90
4425;DHT22;2225;53.568;13.266;2023-11-19T14:35:28;14.80;99.90
4425;DHT22;2225;53.568;13.266;2023-11-19T14:37:57;14.80;99.90
4425;DHT22;2225;53.568;13.266;2023-11-19T14:40:23;14.80;99.90
4425;DHT22;2225;53.568;13.266;2023-11-19T14:43:08;14.80;99.90
4425;DHT22;2225;53.568;13.266;2023-11-19T14:45:38;14.80;99.90
4425;DHT22;2225;53.568;13.266;2023-11-19T14:48:15;14.80;99.90
4425;DHT22;2225;53.568;13.266;2023-11-19T14:50:44;14.80;99.90
4425;DHT22;2225;53.568;13.266;2023-11-19T14:53:11;14.70;99.90
4425;DHT22;2225;53.568;13.266;2023-11-19T14:55:38;14.80;99.90
4425;DHT22;2225;53.568;13.266;2023-11-19T14:58:05;14.70;99.90
4425;DHT22;2225;53.568;13.266;2023-11-19T15:00:37;14.70;99.90
4425;DHT22;2225;53.568;13.266;2023-11-19T15:03:04;14.70;99.90
4425;DHT22;2225;53.568;13.266;2023-11-19T15:05:33;14.70;99.90
4425;DHT22;2225;53.568;13.266;2023-11-19T15:08:00;14.60;99.90
4425;DHT22;2225;53.568;13.266;2023-11-19T15:10:27;14.60;99.90
4425;DHT22;2225;53.568;13.266;2023-11-19T15:12:53;14.60;99.90
4425;DHT22;2225;53.568;13.266;2023-11-19T15:15:21;14.50;99.90
4425;DHT22;2225;53.568;13.266;2023-11-19T15:17:51;14.50;99.90
4425;DHT22;2225;53.568;13.266;2023-11-19T15:20:18;14.40;99.90
4425;DHT22;2225;53.568;13.266;2023-11-19T15:22:46;14.40;99.90
4425;DHT22;2225;53.568;13.266;2023-11-19T15:25:13;14.30;99.90
4425;DHT22;2225;53.568;13.266;2023-11-19T15:27:40;14.30;99.90
4425;DHT22;2225;53.568;13.266;2023-11-19T15:30:08;14.30;99.90
4425;DHT22;2225;53.568;13.266;2023-11-19T15:32:37;14.20;99.90
4425;DHT22;2225;53.568;13.266;2023-11-19T15:35:04;14.20;99.90
4425;DHT22;2225;53.568;13.266;2023-11-19T15:37:33;14.20;99.90
4425;DHT22;2225;53.568;13.266;2023-11-19T15:40:01;14.20;99.90
4425;DHT22;2225;53.568;13.266;2023-11-19T15:42:30;14.20;99.90
4425;DHT22;2225;53.568;13.266;2023-11-19T15:44:57;14.10;99.90
4425;DHT22;2225;53.568;13.266;2023-11-19T15:47:24;14.10;99.90
4425;DHT22;2225;53.568;13.266;2023-11-19T15:49:51;14.10;99.90
4425;DHT22;2225;53.568;13.266;2023-11-19T15:52:18;14.10;99.90
4425;DHT22;2225;53.568;13.266;2023-11-19T15:54:45;14.10;99.90
4425;DHT22;2225;53.568;13.266;2023-11-19T15:57:14;14.10;99.90
4425;DHT22;2225;53.568;13.266;2023-11-19T15:59:41;14.10;99.90
4425;DHT22;2225;53.568;13.266;2023-11-19T16:02:08;14.10;99.90
4425;DHT22;2225;53.568;13.266;2023-11-19T16:04:35;14.10;99.90
4425;DHT22;2225;53.568;13.266;2023-11-19T16:07:02;14.10;99.90
4425;DHT22;2225;53.568;13.266;2023-11-19T16:09:29;14.10;99.90
4425;DHT22;2225;53.568;13.266;2023-11-19T16:11:57;14.10;99.90
4425;DHT22;2225;53.568;13.266;2023-11-19T16:14:24;14.10;99.90
4425;DHT22;2225;53.568;13.266;2023-11-19T16:16:52;14.10;99.90
4425;DHT22;2225;53.568;13.266;2023-11-19T16:19:19;14.20;99.90
4425;DHT22;2225;53.568;13.266;2023-11-19T16:21:46;14.10;99.90
4425;DHT22;2225;53.568;13.266;2023-11-19T16:24:14;14.20;99.90